Time;durP1;ratioP1;P1;durP2;ratioP2;P2;SDS_P1;SDS_P2;PMS_P1;PMS_P2;Temp;Humidity;BMP_temperature;BMP_pressure;BME280_temperature;BME280_humidity;BME280_pressure;Samples;Min_cycle;Max_cycle;Signal;HPM_P1;HPM_P2
2023/04/27 00:00:22;;;;;;;17.00;9.35;;;3.70;92.50;;;;;;5072913;28;20040;-69
2023/04/27 00:02:48;;;;;;;21.48;9.75;;;3.60;94.80;;;;;;5073054;28;20060;-70
2023/04/27 00:05:13;;;;;;;18.95;9.45;;;3.60;99.90;;;;;;5073327;28;20038;-70
2023/04/27 00:07:39;;;;;;;21.08;10.15;;;3.60;99.90;;;;;;5072726;28;20031;-69
2023/04/27 00:10:05;;;;;;;20.45;10.52;;;3.50;99.90;;;;;;5075983;28;20067;-69
2023/04/27 00:12:31;;;;;;;18.35;10.68;;;3.50;99.90;;;;;;5077208;28;20475;-69
2023/04/27 00:14:56;;;;;;;17.98;9.68;;;3.40;99.90;;;;;;5076257;28;20117;-70
2023/04/27 00:17:22;;;;;;;19.55;10.75;;;3.40;99.90;;;;;;5076825;28;20036;-70
2023/04/27 00:19:48;;;;;;;19.13;9.40;;;3.30;99.90;;;;;;5075817;28;20082;-70
2023/04/27 00:22:13;;;;;;;19.25;10.68;;;3.30;99.90;;;;;;5076460;28;20035;-70
2023/04/27 00:24:40;;;;;;;20.15;10.20;;;3.30;99.90;;;;;;5076521;28;20046;-69
2023/04/27 00:27:06;;;;;;;22.08;10.73;;;3.20;99.90;;;;;;5076268;28;20496;-69
2023/04/27 00:29:31;;;;;;;21.33;11.18;;;3.20;99.90;;;;;;5076503;28;20025;-70
2023/04/27 00:31:57;;;;;;;17.65;9.70;;;3.20;99.90;;;;;;5076762;28;20032;-70
2023/04/27 00:34:23;;;;;;;22.08;10.35;;;3.20;99.90;;;;;;5076227;28;20032;-71
2023/04/27 00:36:48;;;;;;;22.58;10.77;;;3.10;99.90;;;;;;5076743;28;20090;-70
2023/04/27 00:39:14;;;;;;;17.05;9.50;;;3.00;99.90;;;;;;5076678;28;20468;-70
2023/04/27 00:41:39;;;;;;;20.42;9.40;;;3.00;99.90;;;;;;5076229;28;20021;-70
2023/04/27 00:44:05;;;;;;;19.60;10.10;;;3.00;99.90;;;;;;5076247;28;20485;-71
2023/04/27 00:46:32;;;;;;;20.90;9.43;;;3.00;99.90;;;;;;5076507;28;20032;-70
2023/04/27 00:48:58;;;;;;;18.65;10.15;;;2.90;99.90;;;;;;5075962;28;20035;-70
2023/04/27 00:51:26;;;;;;;20.65;10.38;;;2.90;99.90;;;;;;5075845;28;20032;-70
2023/04/27 00:53:53;;;;;;;22.35;10.13;;;2.90;99.90;;;;;;5076086;28;20071;-70
2023/04/27 00:56:19;;;;;;;20.05;10.65;;;2.90;99.90;;;;;;5075755;28;20041;-70
2023/04/27 00:58:44;;;;;;;22.02;9.65;;;2.90;99.90;;;;;;5076027;28;20024;-70
2023/04/27 01:01:11;;;;;;;21.60;10.27;;;2.90;99.90;;;;;;5075391;28;20053;-70
2023/04/27 01:03:37;;;;;;;15.05;9.27;;;2.80;99.90;;;;;;5076001;28;20089;-70
2023/04/27 01:06:02;;;;;;;19.08;9.90;;;2.90;99.90;;;;;;5075580;28;20024;-71
2023/04/27 01:08:28;;;;;;;18.90;10.15;;;2.90;99.90;;;;;;5075250;28;20020;-71
2023/04/27 01:10:54;;;;;;;22.83;10.90;;;2.90;99.90;;;;;;5075345;28;20055;-70
2023/04/27 01:13:19;;;;;;;19.15;9.82;;;2.90;99.90;;;;;;5075331;28;20028;-70
2023/04/27 01:15:45;;;;;;;17.65;9.82;;;3.00;99.90;;;;;;5075675;28;20064;-70
2023/04/27 01:18:10;;;;;;;18.73;11.13;;;3.00;99.90;;;;;;5075888;28;20036;-70
2023/04/27 01:20:37;;;;;;;25.55;11.82;;;3.10;99.90;;;;;;5075135;28;20444;-71
2023/04/27 01:23:03;;;;;;;19.00;10.18;;;3.10;99.90;;;;;;5075266;28;20478;-70
2023/04/27 01:25:28;;;;;;;20.55;11.15;;;3.20;99.90;;;;;;5075038;28;20028;-70
2023/04/27 01:27:54;;;;;;;20.58;9.95;;;3.30;99.90;;;;;;5075526;28;20512;-70
2023/04/27 01:30:21;;;;;;;20.33;11.05;;;3.30;99.90;;;;;;5075610;28;20024;-70
2023/04/27 01:32:47;;;;;;;18.83;10.15;;;3.40;99.90;;;;;;5075139;28;20379;-70
2023/04/27 01:35:13;;;;;;;23.15;11.57;;;3.40;99.90;;;;;;5075082;28;20445;-71
2023/04/27 01:37:38;;;;;;;20.85;10.70;;;3.50;99.90;;;;;;5074750;28;20112;-70
2023/04/27 01:40:05;;;;;;;26.38;11.23;;;3.60;99.90;;;;;;5074660;28;20028;-70
2023/04/27 01:42:31;;;;;;;24.05;11.43;;;3.60;99.90;;;;;;5074688;28;20055;-70
2023/04/27 01:44:56;;;;;;;21.55;10.25;;;3.70;99.90;;;;;;5074240;28;20504;-70
2023/04/27 01:47:22;;;;;;;20.92;10.02;;;3.70;99.90;;;;;;5074950;28;20027;-70
2023/04/27 01:49:47;;;;;;;19.48;10.63;;;3.70;99.90;;;;;;5075215;28;20062;-70
2023/04/27 01:52:13;;;;;;;16.92;9.90;;;3.80;99.90;;;;;;5075199;28;20133;-70
2023/04/27 01:54:38;;;;;;;19.70;10.60;;;3.80;99.90;;;;;;5074578;28;20029;-70
2023/04/27 01:57:04;;;;;;;19.10;10.20;;;3.80;99.90;;;;;;5074779;28;20059;-71
2023/04/27 01:59:29;;;;;;;19.25;10.55;;;3.90;99.90;;;;;;5074602;28;20111;-70
2023/04/27 02:01:55;;;;;;;23.45;10.23;;;3.80;99.90;;;;;;5074076;28;20052;-70
2023/04/27 02:04:21;;;;;;;18.85;9.90;;;3.90;99.90;;;;;;5074570;28;20029;-70
2023/04/27 02:06:46;;;;;;;19.40;10.57;;;3.90;99.90;;;;;;5074354;28;20024;-70
2023/04/27 02:09:12;;;;;;;17.88;10.63;;;3.90;99.90;;;;;;5074285;28;20470;-70
2023/04/27 02:11:38;;;;;;;22.48;11.40;;;4.00;99.90;;;;;;5073637;28;20028;-71
2023/04/27 02:14:04;;;;;;;26.52;9.90;;;4.00;99.90;;;;;;5074890;28;20028;-70
2023/04/27 02:16:29;;;;;;;22.48;10.15;;;4.00;99.90;;;;;;5073806;28;20035;-70
2023/04/27 02:18:55;;;;;;;18.92;10.27;;;4.00;99.90;;;;;;5074352;28;20079;-71
2023/04/27 02:21:21;;;;;;;16.73;9.82;;;4.10;99.90;;;;;;5074417;28;20024;-70
2023/04/27 02:23:46;;;;;;;21.13;10.32;;;4.10;99.90;;;;;;5073749;28;20033;-70
2023/04/27 02:26:21;;;;;;;20.67;9.85;;;4.10;99.90;;;;;;5074325;28;20031;-70
2023/04/27 02:28:47;;;;;;;21.00;9.95;;;4.00;99.90;;;;;;5073887;28;20020;-70
2023/04/27 02:31:14;;;;;;;21.42;10.85;;;4.00;99.90;;;;;;5073754;28;20435;-70
2023/04/27 02:33:40;;;;;;;19.80;8.98;;;3.90;99.90;;;;;;5074252;28;20028;-70
2023/04/27 02:36:07;;;;;;;20.55;9.68;;;3.80;99.90;;;;;;5074011;28;20082;-70
2023/04/27 02:38:34;;;;;;;17.90;9.35;;;3.80;99.90;;;;;;5073616;28;20036;-70
2023/04/27 02:40:59;;;;;;;19.98;10.52;;;3.80;99.90;;;;;;5073701;28;20141;-70
2023/04/27 02:43:25;;;;;;;19.15;9.57;;;3.70;99.90;;;;;;5074236;28;20038;-70
2023/04/27 02:45:50;;;;;;;20.77;10.48;;;3.60;99.90;;;;;;5073517;28;20111;-71
2023/04/27 02:48:16;;;;;;;21.45;10.52;;;3.50;99.90;;;;;;5074137;28;20020;-70
2023/04/27 02:50:43;;;;;;;26.67;10.40;;;3.50;99.90;;;;;;5074269;28;20033;-70
2023/04/27 02:53:10;;;;;;;21.42;10.15;;;3.40;99.90;;;;;;5074337;28;20032;-70
2023/04/27 02:55:36;;;;;;;20.95;10.35;;;3.30;99.90;;;;;;5073642;28;20029;-70
2023/04/27 02:58:01;;;;;;;18.08;10.13;;;3.20;99.90;;;;;;5073449;28;20107;-70
2023/04/27 03:00:27;;;;;;;20.40;9.90;;;3.10;99.90;;;;;;5073795;28;20514;-70
2023/04/27 03:02:52;;;;;;;15.82;9.10;;;3.00;99.90;;;;;;5072919;28;20028;-70
2023/04/27 03:05:18;;;;;;;19.10;9.48;;;2.90;99.90;;;;;;5073155;28;20021;-70
2023/04/27 03:07:44;;;;;;;17.85;9.20;;;2.90;99.90;;;;;;5073680;28;20067;-70
2023/04/27 03:10:10;;;;;;;19.30;9.75;;;2.80;99.90;;;;;;5073220;28;20021;-71
2023/04/27 03:12:35;;;;;;;19.88;9.40;;;2.70;99.90;;;;;;5073532;28;20028;-70
2023/04/27 03:15:01;;;;;;;18.42;9.38;;;2.60;99.90;;;;;;5073688;28;20029;-70
2023/04/27 03:17:27;;;;;;;17.25;9.52;;;2.60;99.90;;;;;;5073509;28;20090;-70
2023/04/27 03:19:52;;;;;;;20.15;9.27;;;2.50;99.90;;;;;;5073243;28;20078;-70
2023/04/27 03:22:18;;;;;;;16.08;8.63;;;2.40;99.90;;;;;;5073752;28;20427;-70
2023/04/27 03:24:44;;;;;;;18.95;8.88;;;2.30;99.90;;;;;;5073681;28;20025;-70
2023/04/27 03:27:09;;;;;;;16.65;8.80;;;2.20;99.90;;;;;;5073964;28;20109;-70
2023/04/27 03:29:35;;;;;;;20.05;9.25;;;2.20;99.90;;;;;;5073511;28;20017;-70
2023/04/27 03:32:02;;;;;;;17.70;9.05;;;2.20;99.90;;;;;;5073506;28;20028;-70
2023/04/27 03:34:28;;;;;;;19.65;9.35;;;2.10;99.90;;;;;;5073826;28;20028;-70
2023/04/27 03:36:54;;;;;;;19.25;9.43;;;2.00;99.90;;;;;;5073683;28;20538;-70
2023/04/27 03:39:19;;;;;;;19.90;9.90;;;2.00;99.90;;;;;;5073329;28;20024;-70
2023/04/27 03:41:45;;;;;;;19.33;9.27;;;1.90;99.90;;;;;;5073084;28;20111;-69
2023/04/27 03:44:10;;;;;;;17.80;9.95;;;1.80;99.90;;;;;;5075253;28;20074;-70
2023/04/27 03:46:36;;;;;;;18.65;9.00;;;1.70;99.90;;;;;;5077310;28;20032;-69
2023/04/27 03:49:02;;;;;;;18.13;8.77;;;1.70;99.90;;;;;;5076976;28;20024;-71
2023/04/27 03:51:28;;;;;;;17.63;9.20;;;1.60;99.90;;;;;;5076885;28;20035;-71
2023/04/27 03:53:54;;;;;;;16.85;9.18;;;1.60;99.90;;;;;;5077024;28;20430;-70
2023/04/27 03:56:20;;;;;;;15.43;9.40;;;1.50;99.90;;;;;;5077007;28;20070;-71
2023/04/27 03:58:45;;;;;;;23.23;9.98;;;1.50;99.90;;;;;;5077142;28;20496;-75
2023/04/27 04:01:11;;;;;;;21.05;9.63;;;1.50;99.90;;;;;;5076544;28;20056;-70
2023/04/27 04:03:36;;;;;;;20.50;9.85;;;1.50;99.90;;;;;;5076879;28;20521;-70
2023/04/27 04:06:03;;;;;;;17.67;9.27;;;1.50;99.90;;;;;;5077124;28;20148;-70
2023/04/27 04:08:29;;;;;;;19.65;10.20;;;1.40;99.90;;;;;;5076947;28;20401;-70
2023/04/27 04:10:56;;;;;;;18.20;9.48;;;1.40;99.90;;;;;;5075936;28;20020;-70
2023/04/27 04:13:21;;;;;;;22.17;10.25;;;1.40;99.90;;;;;;5076915;28;20482;-70
2023/04/27 04:15:48;;;;;;;19.85;10.20;;;1.40;99.90;;;;;;5076679;28;20035;-70
2023/04/27 04:18:16;;;;;;;19.50;10.07;;;1.30;99.90;;;;;;5076523;28;20485;-71
2023/04/27 04:20:41;;;;;;;19.23;10.38;;;1.30;99.90;;;;;;5076724;28;20033;-71
2023/04/27 04:23:07;;;;;;;19.77;9.93;;;1.40;99.90;;;;;;5076294;28;20033;-70
2023/04/27 04:25:32;;;;;;;21.23;10.63;;;1.40;99.90;;;;;;5076620;28;20425;-70
2023/04/27 04:27:58;;;;;;;20.45;10.48;;;1.40;99.90;;;;;;5076440;28;20024;-70
2023/04/27 04:30:24;;;;;;;19.38;10.35;;;1.40;99.90;;;;;;5076391;28;20021;-70
2023/04/27 04:32:49;;;;;;;28.45;12.05;;;1.50;99.90;;;;;;5076737;28;20032;-70
2023/04/27 04:35:18;;;;;;;23.00;10.95;;;1.50;99.90;;;;;;5076632;28;20028;-70
2023/04/27 04:37:44;;;;;;;21.48;11.65;;;1.60;99.90;;;;;;5076001;28;20025;-70
2023/04/27 04:40:10;;;;;;;22.70;11.65;;;1.70;99.90;;;;;;5076226;28;20158;-70
2023/04/27 04:42:36;;;;;;;20.52;11.48;;;1.80;99.90;;;;;;5075365;28;20024;-71
2023/04/27 04:45:03;;;;;;;21.25;10.82;;;1.80;99.90;;;;;;5076578;28;20028;-70
2023/04/27 04:47:30;;;;;;;24.45;11.95;;;1.90;99.90;;;;;;5076522;28;20119;-70
2023/04/27 04:49:56;;;;;;;19.15;11.20;;;2.10;99.90;;;;;;5075876;28;20020;-70
2023/04/27 04:52:22;;;;;;;24.17;12.18;;;2.20;99.90;;;;;;5076107;28;20194;-70
2023/04/27 04:54:51;;;;;;;26.95;12.77;;;2.40;99.90;;;;;;5075199;28;20115;-69
2023/04/27 04:57:17;;;;;;;28.55;12.95;;;2.50;99.90;;;;;;5075480;28;20034;-70
2023/04/27 04:59:43;;;;;;;27.02;12.93;;;2.70;99.90;;;;;;5075951;28;20036;-70
2023/04/27 05:02:08;;;;;;;25.55;12.05;;;2.80;99.90;;;;;;5074872;28;20044;-69
2023/04/27 05:04:34;;;;;;;29.77;14.40;;;3.00;99.90;;;;;;5076020;28;20064;-69
2023/04/27 05:07:00;;;;;;;29.48;14.82;;;3.30;99.90;;;;;;5076147;28;20016;-69
2023/04/27 05:09:25;;;;;;;25.15;13.93;;;3.50;99.90;;;;;;5075439;28;20027;-70
2023/04/27 05:11:51;;;;;;;27.23;12.57;;;3.70;99.90;;;;;;5075623;28;20024;-70
2023/04/27 05:14:19;;;;;;;23.75;12.60;;;3.90;99.90;;;;;;5075966;28;20082;-70
2023/04/27 05:16:47;;;;;;;26.52;12.13;;;4.10;99.90;;;;;;5075710;28;20116;-70
2023/04/27 05:19:17;;;;;;;20.27;10.82;;;4.20;99.90;;;;;;5075693;28;20035;-70
2023/04/27 05:21:44;;;;;;;26.02;12.50;;;4.30;99.90;;;;;;5075716;28;20059;-70
2023/04/27 05:24:11;;;;;;;22.38;11.60;;;4.30;99.90;;;;;;5074585;28;20024;-70
2023/04/27 05:26:37;;;;;;;19.58;11.20;;;4.70;99.90;;;;;;5075171;28;20437;-70
2023/04/27 05:29:03;;;;;;;21.00;10.95;;;5.10;99.90;;;;;;5075583;28;20020;-70
2023/04/27 05:31:29;;;;;;;27.85;13.07;;;5.20;99.90;;;;;;5074967;28;20031;-70
2023/04/27 05:33:58;;;;;;;22.15;11.15;;;5.30;99.60;;;;;;5075577;28;20356;-70
2023/04/27 05:36:23;;;;;;;27.52;11.38;;;5.40;78.20;;;;;;5075248;28;20028;-70
2023/04/27 05:38:49;;;;;;;20.95;10.43;;;5.60;53.40;;;;;;5075273;28;20032;-70
2023/04/27 05:41:17;;;;;;;21.67;9.77;;;5.90;55.90;;;;;;5075152;28;20028;-70
2023/04/27 05:43:43;;;;;;;20.05;9.40;;;6.70;37.00;;;;;;5075247;28;20477;-70
2023/04/27 05:46:13;;;;;;;14.00;8.35;;;10.00;14.00;;;;;;5074616;28;20048;-71
2023/04/27 05:48:39;;;;;;;15.18;7.70;;;9.90;1.00;;;;;;5074643;28;20473;-71
2023/04/27 05:51:05;;;;;;;10.75;6.65;;;12.00;1.00;;;;;;5074527;28;20020;-71
2023/04/27 05:53:32;;;;;;;15.55;7.35;;;13.40;99.90;;;;;;5073966;28;20023;-71
2023/04/27 05:55:58;;;;;;;16.13;7.05;;;13.70;99.90;;;;;;5074553;28;20082;-71
2023/04/27 05:58:24;;;;;;;14.18;6.53;;;13.80;1.00;;;;;;5074223;28;20013;-72
2023/04/27 06:00:49;;;;;;;12.15;6.30;;;14.90;1.00;;;;;;5074424;28;20040;-72
2023/04/27 06:03:15;;;;;;;10.27;6.22;;;14.00;1.00;;;;;;5074134;28;20440;-72
2023/04/27 06:05:41;;;;;;;9.30;6.18;;;15.40;99.90;;;;;;5074470;28;20427;-71
2023/04/27 06:08:07;;;;;;;11.27;5.63;;;16.10;99.90;;;;;;5074041;28;20356;-72
2023/04/27 06:10:34;;;;;;;7.78;5.47;;;15.80;99.90;;;;;;5074394;28;20032;-72
2023/04/27 06:12:59;;;;;;;7.53;5.50;;;15.50;80.90;;;;;;5074386;28;20036;-71
2023/04/27 06:15:25;;;;;;;9.23;5.82;;;15.30;51.90;;;;;;5074449;28;20028;-72
2023/04/27 06:17:51;;;;;;;10.43;5.55;;;15.70;3.40;;;;;;5074783;28;20036;-72
2023/04/27 06:20:17;;;;;;;9.35;5.10;;;16.00;27.40;;;;;;5073743;28;20029;-72
2023/04/27 06:22:45;;;;;;;10.13;5.38;;;16.40;1.00;;;;;;5073890;28;20032;-72
2023/04/27 06:25:11;;;;;;;12.18;5.65;;;16.00;1.00;;;;;;5074221;28;20020;-71
2023/04/27 06:27:36;;;;;;;8.23;4.85;;;15.80;1.00;;;;;;5074436;28;20028;-72
2023/04/27 06:30:02;;;;;;;12.40;5.28;;;16.30;1.00;;;;;;5074031;28;20052;-72
2023/04/27 06:32:28;;;;;;;10.02;5.07;;;16.40;1.00;;;;;;5073549;28;20040;-72
2023/04/27 06:34:53;;;;;;;5.53;4.18;;;16.60;1.00;;;;;;5073883;28;20032;-72
2023/04/27 06:37:19;;;;;;;9.57;4.93;;;17.40;1.00;;;;;;5072803;28;20493;-72
2023/04/27 06:39:45;;;;;;;8.80;4.22;;;17.00;1.00;;;;;;5072505;28;20028;-72
2023/04/27 06:42:11;;;;;;;7.80;4.55;;;16.80;1.00;;;;;;5072565;28;20047;-71
2023/04/27 06:44:37;;;;;;;9.77;4.78;;;15.70;1.00;;;;;;5074226;28;20024;-71
2023/04/27 06:47:03;;;;;;;6.78;4.60;;;16.50;1.00;;;;;;5073764;28;20470;-72
2023/04/27 06:49:28;;;;;;;11.70;5.05;;;16.80;1.00;;;;;;5073284;28;20031;-71
2023/04/27 06:51:54;;;;;;;7.30;4.68;;;16.80;1.00;;;;;;5073509;28;20060;-72
2023/04/27 06:54:20;;;;;;;9.13;4.72;;;17.20;1.00;;;;;;5073823;28;20024;-72
2023/04/27 06:56:46;;;;;;;8.50;4.78;;;16.70;1.00;;;;;;5072863;28;20470;-72
2023/04/27 06:59:12;;;;;;;9.10;4.40;;;17.10;1.00;;;;;;5074021;28;20028;-72
2023/04/27 07:01:38;;;;;;;7.88;5.00;;;16.90;1.00;;;;;;5073011;28;20048;-71
2023/04/27 07:04:04;;;;;;;7.88;4.70;;;17.00;99.90;;;;;;5073405;28;20381;-70
2023/04/27 07:06:30;;;;;;;8.82;5.07;;;17.10;99.90;;;;;;5072549;28;20056;-72
2023/04/27 07:08:56;;;;;;;10.23;5.38;;;16.80;99.90;;;;;;5073019;28;20059;-71
2023/04/27 07:11:25;;;;;;;11.75;5.07;;;16.70;99.90;;;;;;5073213;28;20035;-71
2023/04/27 07:13:50;;;;;;;10.13;4.85;;;16.80;99.90;;;;;;5073620;28;20131;-72
2023/04/27 07:16:16;;;;;;;9.30;4.75;;;16.70;99.90;;;;;;5072971;28;20108;-71
2023/04/27 07:18:43;;;;;;;8.82;4.43;;;17.00;99.90;;;;;;5076415;28;20029;-71
2023/04/27 07:21:09;;;;;;;9.00;4.60;;;17.90;99.90;;;;;;5077082;28;20448;-71
2023/04/27 07:23:35;;;;;;;10.85;5.50;;;18.10;99.90;;;;;;5077142;28;20435;-71
2023/04/27 07:26:01;;;;;;;7.90;5.25;;;18.20;99.90;;;;;;5077478;28;20067;-71
2023/04/27 07:28:28;;;;;;;10.65;5.20;;;18.60;99.90;;;;;;5077483;28;20452;-71
2023/04/27 07:30:54;;;;;;;6.95;5.15;;;18.50;99.90;;;;;;5077124;28;20066;-71
2023/04/27 07:33:21;;;;;;;13.68;5.20;;;18.50;99.90;;;;;;5076641;28;20029;-70
2023/04/27 07:35:48;;;;;;;13.95;5.50;;;18.40;99.90;;;;;;5076545;28;20024;-71
2023/04/27 07:38:16;;;;;;;8.65;4.43;;;17.60;99.90;;;;;;5077074;28;20024;-71
2023/04/27 07:40:41;;;;;;;9.70;4.63;;;16.70;99.90;;;;;;5076842;28;20166;-70
2023/04/27 07:43:08;;;;;;;13.52;4.57;;;16.70;99.90;;;;;;5071524;28;20124;-71
2023/04/27 07:45:37;;;;;;;9.98;4.97;;;17.00;99.90;;;;;;5074057;28;20039;-72
2023/04/27 07:48:04;;;;;;;9.70;4.65;;;17.50;99.90;;;;;;5077267;28;20094;-71
2023/04/27 07:50:30;;;;;;;8.95;4.80;;;17.30;99.90;;;;;;5076500;28;20029;-71
2023/04/27 07:52:57;;;;;;;9.65;5.05;;;17.40;99.90;;;;;;5076785;28;20025;-71
2023/04/27 07:55:24;;;;;;;10.55;5.15;;;16.60;99.90;;;;;;5076545;28;20065;-72
2023/04/27 07:57:51;;;;;;;8.18;5.45;;;17.00;99.90;;;;;;5076150;28;20036;-71
2023/04/27 08:00:18;;;;;;;9.15;4.93;;;17.50;99.90;;;;;;5077100;28;20032;-71
2023/04/27 08:02:43;;;;;;;8.90;5.20;;;17.30;99.90;;;;;;5075812;28;20110;-71
2023/04/27 08:05:09;;;;;;;8.73;4.65;;;16.40;99.90;;;;;;5076490;28;20036;-72
2023/04/27 08:07:35;;;;;;;7.15;4.88;;;16.90;99.90;;;;;;5076007;28;20032;-72
2023/04/27 08:10:00;;;;;;;8.43;4.93;;;18.10;99.90;;;;;;5077094;28;20025;-71
2023/04/27 08:12:26;;;;;;;10.43;4.65;;;18.90;99.90;;;;;;5076138;28;20024;-70
2023/04/27 08:14:51;;;;;;;8.45;4.07;;;18.10;99.90;;;;;;5076567;28;20078;-71
2023/04/27 08:17:18;;;;;;;7.50;4.20;;;17.60;99.90;;;;;;5076017;28;20126;-71
2023/04/27 08:19:44;;;;;;;8.32;3.95;;;17.90;99.90;;;;;;5075330;28;20237;-70
2023/04/27 08:22:09;;;;;;;9.00;3.42;;;18.00;99.90;;;;;;5075800;28;20107;-71
2023/04/27 08:24:35;;;;;;;4.93;2.90;;;18.80;99.90;;;;;;5076412;28;20024;-72
2023/04/27 08:27:02;;;;;;;5.32;3.17;;;18.70;99.90;;;;;;5079362;28;20491;-71
2023/04/27 08:29:28;;;;;;;8.05;3.40;;;18.30;99.90;;;;;;5075286;28;20017;-71
2023/04/27 08:31:54;;;;;;;5.15;3.75;;;18.10;99.90;;;;;;5076314;28;20143;-71
2023/04/27 08:34:19;;;;;;;7.55;3.63;;;18.60;99.90;;;;;;5076243;28;20486;-72
2023/04/27 08:36:45;;;;;;;7.78;3.90;;;18.60;99.90;;;;;;5076039;28;20036;-71
2023/04/27 08:39:10;;;;;;;5.68;3.10;;;18.90;99.90;;;;;;5075737;28;20402;-71
2023/04/27 08:41:42;;;;;;;8.23;3.58;;;18.00;99.90;;;;;;5076254;28;20066;-72
2023/04/27 08:44:08;;;;;;;7.07;3.28;;;18.50;99.90;;;;;;5075987;28;20105;-71
2023/04/27 08:46:35;;;;;;;6.35;3.33;;;17.50;99.90;;;;;;5075836;28;20029;-71
2023/04/27 08:49:01;;;;;;;4.35;3.50;;;18.10;99.90;;;;;;5076011;28;20051;-72
2023/04/27 08:51:27;;;;;;;6.07;3.35;;;17.70;99.90;;;;;;5075931;28;20024;-72
2023/04/27 08:53:55;;;;;;;4.15;3.42;;;18.30;99.90;;;;;;5075352;28;20020;-71
2023/04/27 08:56:26;;;;;;;8.05;2.92;;;18.70;99.90;;;;;;5075798;28;20344;-72
2023/04/27 08:58:52;;;;;;;5.72;2.95;;;18.50;99.90;;;;;;5076413;28;20024;-72
2023/04/27 09:01:18;;;;;;;5.78;3.30;;;18.70;99.90;;;;;;5074796;28;20056;-73
2023/04/27 09:03:45;;;;;;;3.88;3.08;;;18.60;99.90;;;;;;5075356;28;20499;-73
2023/04/27 09:06:12;;;;;;;8.00;3.45;;;18.40;99.90;;;;;;5074615;28;20466;-71
2023/04/27 09:08:45;;;;;;;5.63;3.30;;;19.00;99.90;;;;;;5075427;28;20024;-73
2023/04/27 09:11:12;;;;;;;6.97;3.22;;;19.50;99.90;;;;;;5075812;28;20070;-72
2023/04/27 09:13:38;;;;;;;4.38;3.33;;;19.30;99.90;;;;;;5074557;28;20028;-71
2023/04/27 09:16:05;;;;;;;5.22;3.28;;;18.70;99.90;;;;;;5074928;28;20083;-72
2023/04/27 09:18:35;;;;;;;5.93;3.35;;;18.30;99.90;;;;;;5075467;28;20042;-72
2023/04/27 09:21:03;;;;;;;3.70;3.20;;;17.70;99.90;;;;;;5074625;28;20390;-71
2023/04/27 09:23:31;;;;;;;5.00;3.03;;;17.70;99.90;;;;;;5075477;28;20465;-72
2023/04/27 09:25:59;;;;;;;4.88;3.28;;;18.20;99.90;;;;;;5074632;28;20074;-72
2023/04/27 09:28:26;;;;;;;7.45;3.60;;;18.60;99.90;;;;;;5075638;28;20470;-72
2023/04/27 09:30:54;;;;;;;4.20;3.28;;;17.90;99.90;;;;;;5074821;28;20028;-72
2023/04/27 09:33:25;;;;;;;5.75;3.30;;;17.50;99.90;;;;;;5075121;28;20028;-71
2023/04/27 09:35:52;;;;;;;3.80;3.45;;;16.50;99.90;;;;;;5074843;28;20481;-71
2023/04/27 09:38:19;;;;;;;9.15;3.85;;;16.80;99.90;;;;;;5074605;28;20389;-72
2023/04/27 09:40:45;;;;;;;6.22;3.67;;;17.70;99.90;;;;;;5073949;28;20505;-72
2023/04/27 09:43:11;;;;;;;4.78;3.50;;;18.30;99.90;;;;;;5073856;28;20036;-72
2023/04/27 09:45:38;;;;;;;5.85;3.40;;;18.80;99.90;;;;;;5073899;28;20221;-71
2023/04/27 09:48:05;;;;;;;4.88;3.10;;;18.50;99.90;;;;;;5074556;28;20478;-71
2023/04/27 09:50:35;;;;;;;5.55;3.30;;;18.20;99.90;;;;;;5074302;28;20031;-71
2023/04/27 09:53:02;;;;;;;5.63;3.08;;;17.90;99.90;;;;;;5074951;28;20111;-71
2023/04/27 09:55:35;;;;;;;3.92;3.53;;;18.20;99.90;;;;;;5074240;28;20498;-72
2023/04/27 09:58:39;;;;;;;5.50;3.58;;;18.40;99.90;;;;;;5074584;28;20054;-72
2023/04/27 10:01:11;;;;;;;;;;;17.60;99.90;;;;;;5074333;28;20049;-71
2023/04/27 10:04:17;;;;;;;5.78;3.40;;;17.70;99.90;;;;;;5074777;28;19919;-72
2023/04/27 10:07:06;;;;;;;5.47;3.10;;;17.70;99.90;;;;;;5074162;28;20507;-72
2023/04/27 10:09:39;;;;;;;3.88;3.17;;;17.50;99.90;;;;;;5073708;28;20098;-72
2023/04/27 10:12:25;;;;;;;7.53;3.17;;;18.00;99.90;;;;;;5074642;28;20033;-71
2023/04/27 10:14:52;;;;;;;10.00;3.80;;;18.00;99.90;;;;;;5073180;28;20114;-72
2023/04/27 10:17:23;;;;;;;5.45;3.40;;;17.80;99.90;;;;;;5055870;28;20036;-70
2023/04/27 10:19:58;;;;;;;5.20;3.42;;;17.60;99.90;;;;;;5060470;28;20111;-71
2023/04/27 10:22:43;;;;;;;5.75;3.10;;;16.90;99.90;;;;;;5073633;28;20032;-71
2023/04/27 10:25:21;;;;;;;7.68;3.42;;;17.70;99.90;;;;;;5073497;28;20035;-71
2023/04/27 10:27:53;;;;;;;3.53;3.10;;;17.00;99.90;;;;;;5073705;28;20025;-71
2023/04/27 10:30:20;;;;;;;5.55;3.40;;;17.60;99.90;;;;;;5073465;28;20043;-72
2023/04/27 10:32:50;;;;;;;4.38;3.10;;;17.40;99.90;;;;;;5072883;28;20039;-71
2023/04/27 10:35:16;;;;;;;5.15;3.28;;;17.20;99.90;;;;;;5073214;28;20040;-70
2023/04/27 10:37:42;;;;;;;6.93;3.25;;;16.90;99.90;;;;;;5072749;28;20494;-71
2023/04/27 10:40:13;;;;;;;4.45;3.00;;;17.50;99.90;;;;;;5073736;28;20032;-71
2023/04/27 10:42:39;;;;;;;4.93;3.08;;;18.00;99.90;;;;;;5073063;28;20062;-71
2023/04/27 10:45:05;;;;;;;4.00;3.20;;;18.10;99.90;;;;;;5074213;28;20032;-71
2023/04/27 10:47:46;;;;;;;5.88;3.90;;;17.50;99.90;;;;;;5073628;28;20059;-71
2023/04/27 10:50:13;;;;;;;4.47;3.50;;;17.10;99.90;;;;;;5073906;28;20390;-72
2023/04/27 10:52:42;;;;;;;5.88;4.38;;;15.90;99.90;;;;;;5072809;28;20485;-70
2023/04/27 10:55:23;;;;;;;4.95;3.90;;;15.20;99.90;;;;;;5073625;28;20133;-72
2023/04/27 10:57:52;;;;;;;4.50;3.95;;;15.10;99.90;;;;;;5072768;28;20044;-72
2023/04/27 11:00:36;;;;;;;7.43;4.53;;;16.10;99.90;;;;;;5072894;28;20032;-71
2023/04/27 11:03:15;;;;;;;7.00;4.35;;;15.00;99.90;;;;;;5072632;28;20048;-72
2023/04/27 11:05:43;;;;;;;7.35;4.25;;;15.50;99.90;;;;;;5072535;28;20049;-72
2023/04/27 11:08:11;;;;;;;7.43;4.95;;;15.40;99.90;;;;;;5073824;28;20375;-72
2023/04/27 11:10:40;;;;;;;7.10;4.78;;;15.70;99.90;;;;;;5073638;28;20021;-72
2023/04/27 11:13:08;;;;;;;6.43;4.65;;;14.90;99.90;;;;;;5073525;28;20082;-72
2023/04/27 11:15:54;;;;;;;7.90;5.03;;;15.10;99.90;;;;;;5073168;28;20036;-71
2023/04/27 11:18:22;;;;;;;8.77;5.00;;;15.40;99.90;;;;;;5071680;28;20064;-72
2023/04/27 11:20:51;;;;;;;6.20;4.93;;;15.30;99.90;;;;;;5072483;28;20033;-72
2023/04/27 11:23:36;;;;;;;7.55;5.00;;;14.80;99.90;;;;;;5072875;28;20081;-71
2023/04/27 11:26:20;;;;;;;6.32;4.63;;;15.20;99.90;;;;;;5073185;28;20020;-72
2023/04/27 11:29:09;;;;;;;8.48;4.50;;;15.80;99.90;;;;;;5070457;28;20111;-71
2023/04/27 11:31:47;;;;;;;10.23;4.88;;;15.60;99.90;;;;;;5072589;28;20500;-71
2023/04/27 11:34:18;;;;;;;6.78;4.88;;;15.30;99.90;;;;;;5053694;28;20435;-71
2023/04/27 11:36:43;;;;;;;6.90;4.57;;;14.90;99.90;;;;;;5063802;28;20074;-72
2023/04/27 11:39:20;;;;;;;6.18;5.03;;;14.90;99.90;;;;;;5071157;28;20436;-72
2023/04/27 11:41:46;;;;;;;6.70;4.65;;;15.00;99.90;;;;;;5070356;28;20028;-71
2023/04/27 11:44:12;;;;;;;9.18;5.15;;;14.90;99.90;;;;;;5058452;28;20090;-72
2023/04/27 11:46:40;;;;;;;7.47;4.90;;;14.80;99.90;;;;;;5072584;28;20028;-71
2023/04/27 11:49:07;;;;;;;8.82;4.80;;;15.20;99.90;;;;;;5055577;28;20021;-70
2023/04/27 11:51:34;;;;;;;7.78;4.80;;;14.60;99.90;;;;;;5066714;28;20066;-71
2023/04/27 11:54:05;;;;;;;6.38;5.13;;;14.30;99.90;;;;;;5060258;28;20483;-72
2023/04/27 11:56:36;;;;;;;7.47;5.13;;;14.40;99.90;;;;;;5052890;28;20025;-71
2023/04/27 11:59:02;;;;;;;7.97;5.55;;;14.50;99.90;;;;;;5053586;28;20028;-71
2023/04/27 12:01:28;;;;;;;8.63;5.57;;;14.30;99.90;;;;;;5052685;28;20045;-71
2023/04/27 12:03:53;;;;;;;6.35;5.25;;;14.50;99.90;;;;;;5071586;28;20032;-72
2023/04/27 12:06:27;;;;;;;6.50;5.15;;;14.20;99.90;;;;;;5076806;28;20082;-72
2023/04/27 12:08:55;;;;;;;8.38;5.55;;;14.40;99.90;;;;;;5076056;28;20028;-72
2023/04/27 12:11:22;;;;;;;8.55;5.18;;;14.60;99.90;;;;;;5066029;28;20029;-71
2023/04/27 12:13:47;;;;;;;6.68;5.15;;;15.00;99.90;;;;;;5073718;28;20394;-72
2023/04/27 12:16:13;;;;;;;10.48;5.95;;;14.90;99.90;;;;;;5074824;28;20020;-71
2023/04/27 12:18:38;;;;;;;8.10;5.80;;;14.30;99.90;;;;;;5076196;28;20432;-71
2023/04/27 12:21:06;;;;;;;7.40;5.55;;;14.30;99.90;;;;;;5074964;28;20036;-71
2023/04/27 12:23:33;;;;;;;7.90;5.65;;;14.20;99.90;;;;;;5075838;28;20093;-71
2023/04/27 12:25:58;;;;;;;9.52;5.70;;;14.50;99.90;;;;;;5076294;28;20032;-71
2023/04/27 12:28:24;;;;;;;9.55;5.65;;;14.50;99.90;;;;;;5073821;28;20060;-72
2023/04/27 12:30:49;;;;;;;10.10;5.53;;;14.80;99.90;;;;;;5071084;28;20342;-72
2023/04/27 12:33:15;;;;;;;8.77;5.47;;;14.90;99.90;;;;;;5056675;28;20053;-72
2023/04/27 12:35:41;;;;;;;6.85;5.43;;;15.50;99.90;;;;;;5056004;28;20104;-71
2023/04/27 12:38:07;;;;;;;6.78;5.53;;;15.60;99.90;;;;;;5065126;28;20033;-73
2023/04/27 12:40:32;;;;;;;8.13;5.60;;;15.70;99.90;;;;;;5056016;28;20497;-72
2023/04/27 12:42:59;;;;;;;9.20;5.55;;;15.10;99.90;;;;;;5055428;28;20106;-72